createdAt,value
2022-10-03T00:13:37.894Z,95.5
2022-10-03T00:33:37.838Z,95.5
2022-10-03T00:53:37.814Z,95.6
2022-10-03T01:13:37.877Z,95.7
2022-10-03T01:33:37.795Z,95.7
2022-10-03T01:53:37.822Z,95.8
2022-10-03T02:13:37.817Z,95.8
2022-10-03T02:33:37.658Z,95.9
2022-10-03T02:53:37.752Z,95.9
2022-10-03T03:13:37.627Z,96.0
2022-10-03T03:33:37.558Z,96.0
2022-10-03T03:53:37.585Z,96.0
2022-10-03T04:13:37.569Z,96.0
2022-10-03T04:33:37.619Z,96.0
2022-10-03T04:53:37.539Z,96.0
2022-10-03T05:13:37.482Z,96.1
2022-10-03T05:33:37.492Z,96.2
2022-10-03T05:53:37.517Z,96.2
2022-10-03T06:13:37.486Z,96.3
2022-10-03T06:33:37.518Z,96.3
2022-10-03T06:53:37.497Z,96.2
2022-10-03T07:13:37.424Z,96.1
2022-10-03T07:33:37.440Z,96.2
2022-10-03T07:53:37.428Z,96.1
2022-10-03T08:13:37.412Z,96.0
2022-10-03T08:33:37.396Z,95.9
2022-10-03T08:53:37.437Z,95.6
2022-10-03T09:13:37.347Z,95.3
2022-10-03T09:33:37.402Z,95.3
2022-10-03T09:53:37.383Z,94.6
2022-10-03T10:13:37.288Z,91.4
2022-10-03T10:33:37.311Z,83.1
2022-10-03T10:53:37.246Z,79.7
2022-10-03T11:13:37.257Z,76.6
2022-10-03T11:33:37.178Z,73.5
2022-10-03T11:53:37.279Z,72.0
2022-10-03T12:13:37.177Z,70.4
2022-10-03T12:33:37.170Z,72.5
2022-10-03T12:53:37.103Z,68.2
2022-10-03T13:13:37.196Z,69.0
2022-10-03T13:33:37.059Z,70.4
2022-10-03T13:53:37.113Z,72.7
2022-10-03T14:13:37.010Z,68.6
2022-10-03T14:33:37.061Z,68.8
2022-10-03T14:53:37.076Z,64.1
2022-10-03T15:13:37.128Z,63.7
2022-10-03T15:33:37.033Z,67.2
2022-10-03T15:53:37.047Z,69.3
2022-10-03T16:13:36.931Z,68.8
2022-10-03T16:33:36.977Z,78.0
2022-10-03T16:53:36.841Z,79.6
2022-10-03T17:13:36.867Z,82.1
2022-10-03T17:33:36.898Z,83.0
2022-10-03T17:53:36.837Z,85.9
2022-10-03T18:13:36.841Z,85.7
2022-10-03T18:33:36.759Z,86.0
2022-10-03T18:53:36.795Z,86.4
2022-10-03T19:13:36.851Z,87.2
2022-10-03T19:33:36.728Z,87.2
2022-10-03T19:53:36.752Z,85.5
2022-10-03T20:13:36.776Z,87.2
2022-10-03T20:33:36.819Z,88.1
2022-10-03T20:53:36.738Z,88.2
2022-10-03T21:13:36.811Z,87.0
2022-10-03T21:33:36.687Z,88.6
2022-10-03T21:53:36.714Z,89.1
2022-10-03T22:13:36.720Z,86.5
2022-10-03T22:33:36.645Z,88.3
2022-10-03T22:53:36.641Z,88.3
2022-10-03T23:13:36.675Z,87.7
2022-10-03T23:33:36.682Z,87.9
2022-10-03T23:53:36.626Z,88.9
